sensor_id;sensor_type;location;lat;lon;timestamp;pressure;altitude;pressure_sealevel;temperature;humidity
79584;BME280;69053;57.338;18.700;2023-04-06T00:00:44;102541.94;;;-0.60;77.67
79584;BME280;69053;57.338;18.700;2023-04-06T00:05:46;102542.59;;;-0.56;77.37
79584;BME280;69053;57.338;18.700;2023-04-06T00:10:47;102539.63;;;-0.51;77.14
79584;BME280;69053;57.338;18.700;2023-04-06T00:15:47;102527.75;;;-0.47;77.44
79584;BME280;69053;57.338;18.700;2023-04-06T00:20:48;102532.06;;;-0.45;77.37
79584;BME280;69053;57.338;18.700;2023-04-06T00:25:49;102532.06;;;-0.45;77.23
79584;BME280;69053;57.338;18.700;2023-04-06T00:30:49;102535.69;;;-0.46;77.16
79584;BME280;69053;57.338;18.700;2023-04-06T00:35:50;102544.88;;;-0.50;77.61
79584;BME280;69053;57.338;18.700;2023-04-06T00:40:51;102545.91;;;-0.52;78.15
79584;BME280;69053;57.338;18.700;2023-04-06T00:45:52;102549.88;;;-0.58;78.18
79584;BME280;69053;57.338;18.700;2023-04-06T00:50:52;102548.13;;;-0.59;78.46
79584;BME280;69053;57.338;18.700;2023-04-06T00:55:53;102549.09;;;-0.60;78.40
79584;BME280;69053;57.338;18.700;2023-04-06T01:00:54;102550.25;;;-0.64;78.21
79584;BME280;69053;57.338;18.700;2023-04-06T01:05:54;102543.28;;;-0.67;78.63
79584;BME280;69053;57.338;18.700;2023-04-06T01:10:59;102548.72;;;-0.68;78.94
79584;BME280;69053;57.338;18.700;2023-04-06T01:16:01;102540.88;;;-0.71;79.16
79584;BME280;69053;57.338;18.700;2023-04-06T01:21:02;102543.94;;;-0.78;79.19
79584;BME280;69053;57.338;18.700;2023-04-06T01:26:03;102541.00;;;-0.87;78.78
79584;BME280;69053;57.338;18.700;2023-04-06T01:31:07;102537.28;;;-0.99;79.45
79584;BME280;69053;57.338;18.700;2023-04-06T01:36:08;102546.44;;;-1.18;79.26
79584;BME280;69053;57.338;18.700;2023-04-06T01:41:09;102536.69;;;-1.33;79.19
79584;BME280;69053;57.338;18.700;2023-04-06T01:46:09;102543.34;;;-1.40;79.28
79584;BME280;69053;57.338;18.700;2023-04-06T01:51:10;102545.63;;;-1.48;80.04
79584;BME280;69053;57.338;18.700;2023-04-06T01:56:11;102545.03;;;-1.54;81.36
79584;BME280;69053;57.338;18.700;2023-04-06T02:01:12;102543.94;;;-1.49;81.41
79584;BME280;69053;57.338;18.700;2023-04-06T02:06:12;102551.56;;;-1.43;81.01
79584;BME280;69053;57.338;18.700;2023-04-06T02:11:13;102544.88;;;-1.36;80.79
79584;BME280;69053;57.338;18.700;2023-04-06T02:16:14;102546.53;;;-1.34;81.37
79584;BME280;69053;57.338;18.700;2023-04-06T02:21:16;102549.88;;;-1.30;80.91
79584;BME280;69053;57.338;18.700;2023-04-06T02:26:20;102561.31;;;-1.28;80.54
79584;BME280;69053;57.338;18.700;2023-04-06T02:31:20;102572.19;;;-1.31;81.08
79584;BME280;69053;57.338;18.700;2023-04-06T02:36:21;102571.03;;;-1.41;81.18
79584;BME280;69053;57.338;18.700;2023-04-06T02:41:22;102574.63;;;-1.57;81.35
79584;BME280;69053;57.338;18.700;2023-04-06T02:46:22;102578.28;;;-1.74;80.82
79584;BME280;69053;57.338;18.700;2023-04-06T02:51:23;102572.81;;;-1.86;81.72
79584;BME280;69053;57.338;18.700;2023-04-06T02:56:23;102580.78;;;-2.01;80.91
79584;BME280;69053;57.338;18.700;2023-04-06T03:01:24;102590.41;;;-2.14;81.85
79584;BME280;69053;57.338;18.700;2023-04-06T03:06:25;102586.72;;;-2.28;81.10
79584;BME280;69053;57.338;18.700;2023-04-06T03:11:26;102590.31;;;-2.45;81.86
79584;BME280;69053;57.338;18.700;2023-04-06T03:16:27;102592.66;;;-2.54;81.90
79584;BME280;69053;57.338;18.700;2023-04-06T03:21:28;102595.03;;;-2.66;82.64
79584;BME280;69053;57.338;18.700;2023-04-06T03:26:29;102593.97;;;-2.79;82.04
79584;BME280;69053;57.338;18.700;2023-04-06T03:31:29;102600.81;;;-2.91;82.50
79584;BME280;69053;57.338;18.700;2023-04-06T03:36:30;102603.13;;;-3.00;82.31
79584;BME280;69053;57.338;18.700;2023-04-06T03:41:31;102597.34;;;-3.09;83.00
79584;BME280;69053;57.338;18.700;2023-04-06T03:46:31;102608.38;;;-3.16;82.77
79584;BME280;69053;57.338;18.700;2023-04-06T03:51:32;102602.63;;;-3.25;83.50
79584;BME280;69053;57.338;18.700;2023-04-06T03:56:32;102602.22;;;-3.34;83.11
79584;BME280;69053;57.338;18.700;2023-04-06T04:01:33;102607.84;;;-3.41;84.16
79584;BME280;69053;57.338;18.700;2023-04-06T04:06:33;102612.56;;;-3.46;83.84
79584;BME280;69053;57.338;18.700;2023-04-06T04:11:36;102612.25;;;-3.57;83.62
79584;BME280;69053;57.338;18.700;2023-04-06T04:16:37;102603.78;;;-3.65;83.91
79584;BME280;69053;57.338;18.700;2023-04-06T04:21:43;102609.41;;;-3.71;84.26
79584;BME280;69053;57.338;18.700;2023-04-06T04:26:47;102608.75;;;-3.77;83.71
79584;BME280;69053;57.338;18.700;2023-04-06T04:31:48;102609.09;;;-3.83;84.65
79584;BME280;69053;57.338;18.700;2023-04-06T04:36:49;102621.78;;;-3.88;84.34
79584;BME280;69053;57.338;18.700;2023-04-06T04:41:50;102628.91;;;-3.88;84.94
79584;BME280;69053;57.338;18.700;2023-04-06T04:46:51;102628.00;;;-3.89;84.60
79584;BME280;69053;57.338;18.700;2023-04-06T04:51:52;102630.69;;;-3.89;84.70
79584;BME280;69053;57.338;18.700;2023-04-06T04:56:53;102642.28;;;-3.90;84.78
79584;BME280;69053;57.338;18.700;2023-04-06T05:01:57;102641.25;;;-3.87;83.99
79584;BME280;69053;57.338;18.700;2023-04-06T05:07:08;102640.97;;;-3.81;83.70
79584;BME280;69053;57.338;18.700;2023-04-06T05:12:09;102639.25;;;-3.65;83.87
79584;BME280;69053;57.338;18.700;2023-04-06T05:17:09;102655.44;;;-3.50;84.14
79584;BME280;69053;57.338;18.700;2023-04-06T05:22:10;102644.72;;;-3.31;84.87
79584;BME280;69053;57.338;18.700;2023-04-06T05:27:10;102648.06;;;-3.10;83.61
79584;BME280;69053;57.338;18.700;2023-04-06T05:32:11;102646.78;;;-2.86;83.88
79584;BME280;69053;57.338;18.700;2023-04-06T05:37:12;102661.06;;;-2.53;83.66
79584;BME280;69053;57.338;18.700;2023-04-06T05:42:12;102655.94;;;-2.24;83.93
79584;BME280;69053;57.338;18.700;2023-04-06T05:47:13;102658.91;;;-1.97;82.98
79584;BME280;69053;57.338;18.700;2023-04-06T05:52:13;102653.81;;;-1.70;82.75
79584;BME280;69053;57.338;18.700;2023-04-06T05:57:14;102660.88;;;-1.39;83.17
79584;BME280;69053;57.338;18.700;2023-04-06T06:02:16;102655.63;;;-1.10;82.54
79584;BME280;69053;57.338;18.700;2023-04-06T06:07:17;102664.09;;;-0.73;82.27
79584;BME280;69053;57.338;18.700;2023-04-06T06:12:18;102664.75;;;-0.41;81.36
79584;BME280;69053;57.338;18.700;2023-04-06T06:17:18;102661.47;;;-0.03;79.95
79584;BME280;69053;57.338;18.700;2023-04-06T06:22:19;102665.47;;;0.32;79.38
79584;BME280;69053;57.338;18.700;2023-04-06T06:27:20;102666.84;;;0.52;78.16
79584;BME280;69053;57.338;18.700;2023-04-06T06:32:20;102670.56;;;0.77;76.75
79584;BME280;69053;57.338;18.700;2023-04-06T06:37:21;102669.88;;;1.00;75.90
79584;BME280;69053;57.338;18.700;2023-04-06T06:42:21;102664.81;;;1.21;75.00
79584;BME280;69053;57.338;18.700;2023-04-06T06:47:22;102669.66;;;1.42;74.00
79584;BME280;69053;57.338;18.700;2023-04-06T06:52:23;102675.31;;;1.63;73.36
79584;BME280;69053;57.338;18.700;2023-04-06T06:57:25;102668.66;;;1.81;72.42
79584;BME280;69053;57.338;18.700;2023-04-06T07:02:26;102673.13;;;2.06;71.92
79584;BME280;69053;57.338;18.700;2023-04-06T07:07:26;102668.72;;;2.30;68.85
79584;BME280;69053;57.338;18.700;2023-04-06T07:12:27;102675.41;;;2.48;68.82
79584;BME280;69053;57.338;18.700;2023-04-06T07:17:28;102673.53;;;2.61;68.59
79584;BME280;69053;57.338;18.700;2023-04-06T07:22:29;102674.56;;;2.83;68.57
79584;BME280;69053;57.338;18.700;2023-04-06T07:27:30;102676.94;;;2.99;67.87
79584;BME280;69053;57.338;18.700;2023-04-06T07:32:31;102678.84;;;3.21;67.21
79584;BME280;69053;57.338;18.700;2023-04-06T07:37:32;102685.50;;;3.40;65.11
79584;BME280;69053;57.338;18.700;2023-04-06T07:42:32;102678.50;;;3.48;64.93
79584;BME280;69053;57.338;18.700;2023-04-06T07:47:33;102676.69;;;3.60;63.37
79584;BME280;69053;57.338;18.700;2023-04-06T07:52:34;102673.63;;;3.65;63.29
79584;BME280;69053;57.338;18.700;2023-04-06T07:57:35;102675.56;;;3.97;63.01
79584;BME280;69053;57.338;18.700;2023-04-06T08:02:35;102677.00;;;4.23;62.11
79584;BME280;69053;57.338;18.700;2023-04-06T08:07:36;102676.75;;;4.26;62.09
79584;BME280;69053;57.338;18.700;2023-04-06T08:12:36;102678.03;;;4.43;62.32
79584;BME280;69053;57.338;18.700;2023-04-06T08:17:37;102674.03;;;4.70;61.01
79584;BME280;69053;57.338;18.700;2023-04-06T08:22:40;102681.34;;;4.79;60.94
79584;BME280;69053;57.338;18.700;2023-04-06T08:27:41;102683.44;;;4.97;61.42
79584;BME280;69053;57.338;18.700;2023-04-06T08:32:41;102682.34;;;5.20;60.18
79584;BME280;69053;57.338;18.700;2023-04-06T08:37:42;102677.78;;;5.00;59.16
79584;BME280;69053;57.338;18.700;2023-04-06T08:42:52;102687.63;;;5.01;59.83
79584;BME280;69053;57.338;18.700;2023-04-06T08:47:57;102686.44;;;5.15;60.16
79584;BME280;69053;57.338;18.700;2023-04-06T08:53:02;102678.44;;;5.34;59.61
79584;BME280;69053;57.338;18.700;2023-04-06T08:58:04;102683.13;;;5.32;58.92
79584;BME280;69053;57.338;18.700;2023-04-06T09:03:07;102681.88;;;5.36;59.52
79584;BME280;69053;57.338;18.700;2023-04-06T09:08:08;102695.91;;;5.51;59.29
79584;BME280;69053;57.338;18.700;2023-04-06T09:13:08;102693.00;;;5.64;58.60
79584;BME280;69053;57.338;18.700;2023-04-06T09:18:09;102691.28;;;5.63;57.91
79584;BME280;69053;57.338;18.700;2023-04-06T09:23:19;102692.16;;;5.73;58.32
79584;BME280;69053;57.338;18.700;2023-04-06T09:28:20;102695.56;;;5.66;58.07
79584;BME280;69053;57.338;18.700;2023-04-06T09:33:23;102695.19;;;5.80;57.21
79584;BME280;69053;57.338;18.700;2023-04-06T09:38:24;102689.16;;;5.97;56.29
79584;BME280;69053;57.338;18.700;2023-04-06T09:43:28;102690.69;;;5.90;57.23
79584;BME280;69053;57.338;18.700;2023-04-06T09:48:30;102686.50;;;6.17;56.15
79584;BME280;69053;57.338;18.700;2023-04-06T09:53:31;102696.25;;;6.39;55.70
79584;BME280;69053;57.338;18.700;2023-04-06T09:58:37;102690.59;;;6.81;55.45
79584;BME280;69053;57.338;18.700;2023-04-06T10:03:56;102689.25;;;7.14;55.03
79584;BME280;69053;57.338;18.700;2023-04-06T10:09:04;102690.09;;;7.25;54.11
79584;BME280;69053;57.338;18.700;2023-04-06T10:14:05;102678.09;;;7.37;54.00
79584;BME280;69053;57.338;18.700;2023-04-06T10:19:17;102684.53;;;7.36;53.30
79584;BME280;69053;57.338;18.700;2023-04-06T10:24:19;102675.69;;;7.34;53.42
79584;BME280;69053;57.338;18.700;2023-04-06T10:29:20;102679.03;;;7.56;53.50
79584;BME280;69053;57.338;18.700;2023-04-06T10:34:21;102675.06;;;7.87;52.72
79584;BME280;69053;57.338;18.700;2023-04-06T10:39:24;102674.97;;;8.07;52.66
79584;BME280;69053;57.338;18.700;2023-04-06T10:44:26;102669.72;;;7.68;51.15
79584;BME280;69053;57.338;18.700;2023-04-06T10:49:27;102673.34;;;6.72;52.69
79584;BME280;69053;57.338;18.700;2023-04-06T10:54:27;102667.44;;;7.06;53.25
79584;BME280;69053;57.338;18.700;2023-04-06T10:59:29;102663.97;;;7.43;53.01
79584;BME280;69053;57.338;18.700;2023-04-06T11:04:30;102658.31;;;7.64;51.83
79584;BME280;69053;57.338;18.700;2023-04-06T11:09:49;102655.75;;;7.63;52.32
79584;BME280;69053;57.338;18.700;2023-04-06T11:14:54;102656.34;;;8.12;51.64
79584;BME280;69053;57.338;18.700;2023-04-06T11:19:57;102659.63;;;8.16;51.48
79584;BME280;69053;57.338;18.700;2023-04-06T11:25:05;102654.16;;;7.98;51.22
79584;BME280;69053;57.338;18.700;2023-04-06T11:30:10;102653.59;;;7.29;51.92
79584;BME280;69053;57.338;18.700;2023-04-06T11:35:21;102658.91;;;7.01;53.05
79584;BME280;69053;57.338;18.700;2023-04-06T11:40:22;102646.31;;;7.20;53.29
79584;BME280;69053;57.338;18.700;2023-04-06T11:45:23;102645.97;;;7.42;53.56
79584;BME280;69053;57.338;18.700;2023-04-06T11:50:23;102634.69;;;7.75;52.03
79584;BME280;69053;57.338;18.700;2023-04-06T11:55:24;102646.59;;;7.26;51.54
79584;BME280;69053;57.338;18.700;2023-04-06T12:00:25;102646.19;;;7.21;52.15
79584;BME280;69053;57.338;18.700;2023-04-06T12:05:25;102642.63;;;7.21;52.23
79584;BME280;69053;57.338;18.700;2023-04-06T12:10:26;102648.13;;;7.39;52.64
79584;BME280;69053;57.338;18.700;2023-04-06T12:15:27;102647.06;;;7.49;52.22
79584;BME280;69053;57.338;18.700;2023-04-06T12:20:27;102646.69;;;7.44;52.45
79584;BME280;69053;57.338;18.700;2023-04-06T12:25:28;102632.94;;;7.56;52.88
79584;BME280;69053;57.338;18.700;2023-04-06T12:30:29;102634.78;;;7.18;54.00
79584;BME280;69053;57.338;18.700;2023-04-06T12:35:33;102631.31;;;7.25;53.96
79584;BME280;69053;57.338;18.700;2023-04-06T12:40:37;102615.56;;;7.48;53.79
79584;BME280;69053;57.338;18.700;2023-04-06T12:45:39;102611.94;;;7.85;53.75
79584;BME280;69053;57.338;18.700;2023-04-06T12:50:40;102615.66;;;8.12;52.10
79584;BME280;69053;57.338;18.700;2023-04-06T12:55:41;102597.97;;;8.26;52.19
79584;BME280;69053;57.338;18.700;2023-04-06T13:00:42;102602.19;;;8.56;51.34
79584;BME280;69053;57.338;18.700;2023-04-06T13:05:46;102587.00;;;8.90;51.18
79584;BME280;69053;57.338;18.700;2023-04-06T13:10:48;102601.03;;;9.03;50.53
79584;BME280;69053;57.338;18.700;2023-04-06T13:15:50;102600.13;;;8.40;50.79
79584;BME280;69053;57.338;18.700;2023-04-06T13:20:51;102597.69;;;7.83;52.02
79584;BME280;69053;57.338;18.700;2023-04-06T13:26:02;102601.31;;;7.46;53.21
79584;BME280;69053;57.338;18.700;2023-04-06T13:31:03;102598.09;;;7.23;53.76
79584;BME280;69053;57.338;18.700;2023-04-06T13:36:05;102587.19;;;6.95;55.24
79584;BME280;69053;57.338;18.700;2023-04-06T13:41:06;102587.81;;;6.80;55.59
79584;BME280;69053;57.338;18.700;2023-04-06T13:46:07;102590.69;;;6.49;56.05
79584;BME280;69053;57.338;18.700;2023-04-06T13:51:12;102590.81;;;6.37;56.35
79584;BME280;69053;57.338;18.700;2023-04-06T13:56:13;102581.69;;;6.29;55.87
79584;BME280;69053;57.338;18.700;2023-04-06T14:01:14;102588.53;;;6.04;53.30
79584;BME280;69053;57.338;18.700;2023-04-06T14:06:15;102583.97;;;6.14;53.58
79584;BME280;69053;57.338;18.700;2023-04-06T14:11:18;102589.81;;;6.09;52.21
79584;BME280;69053;57.338;18.700;2023-04-06T15:21:11;102562.28;;;4.40;59.87
79584;BME280;69053;57.338;18.700;2023-04-06T15:26:29;102560.34;;;4.31;59.62
79584;BME280;69053;57.338;18.700;2023-04-06T15:32:01;102552.19;;;4.21;60.44
79584;BME280;69053;57.338;18.700;2023-04-06T15:37:25;102547.31;;;4.36;59.80
79584;BME280;69053;57.338;18.700;2023-04-06T15:42:27;102548.38;;;4.45;60.08
79584;BME280;69053;57.338;18.700;2023-04-06T15:47:29;102549.50;;;4.42;60.26
79584;BME280;69053;57.338;18.700;2023-04-06T15:52:30;102551.66;;;4.27;60.80
79584;BME280;69053;57.338;18.700;2023-04-06T15:57:31;102551.50;;;4.40;60.77
79584;BME280;69053;57.338;18.700;2023-04-06T16:02:31;102545.41;;;4.27;61.52
79584;BME280;69053;57.338;18.700;2023-04-06T16:07:32;102545.38;;;4.06;61.39
79584;BME280;69053;57.338;18.700;2023-04-06T16:12:34;102537.03;;;3.77;62.05
79584;BME280;69053;57.338;18.700;2023-04-06T16:17:35;102535.91;;;3.68;63.05
79584;BME280;69053;57.338;18.700;2023-04-06T16:22:35;102534.84;;;3.59;63.26
79584;BME280;69053;57.338;18.700;2023-04-06T16:27:36;102532.66;;;3.42;64.29
79584;BME280;69053;57.338;18.700;2023-04-06T16:32:36;102526.31;;;3.31;65.34
79584;BME280;69053;57.338;18.700;2023-04-06T16:37:37;102535.38;;;3.30;65.41
79584;BME280;69053;57.338;18.700;2023-04-06T16:42:38;102532.44;;;3.22;66.11
79584;BME280;69053;57.338;18.700;2023-04-06T16:47:38;102531.22;;;3.04;66.39
79584;BME280;69053;57.338;18.700;2023-04-06T16:52:39;102538.81;;;2.87;67.35
79584;BME280;69053;57.338;18.700;2023-04-06T16:57:40;102536.47;;;2.83;67.72
79584;BME280;69053;57.338;18.700;2023-04-06T17:02:41;102547.34;;;2.81;67.94
79584;BME280;69053;57.338;18.700;2023-04-06T17:07:42;102551.63;;;2.72;68.43
79584;BME280;69053;57.338;18.700;2023-04-06T17:12:44;102549.78;;;2.61;68.55
79584;BME280;69053;57.338;18.700;2023-04-06T17:17:45;102542.88;;;2.57;69.14
79584;BME280;69053;57.338;18.700;2023-04-06T17:22:46;102548.25;;;2.46;69.87
79584;BME280;69053;57.338;18.700;2023-04-06T17:27:49;102560.44;;;2.39;69.93
79584;BME280;69053;57.338;18.700;2023-04-06T17:32:51;102558.13;;;2.34;70.08
79584;BME280;69053;57.338;18.700;2023-04-06T17:37:54;102561.16;;;2.30;70.31
79584;BME280;69053;57.338;18.700;2023-04-06T17:42:54;102559.91;;;2.22;70.73
79584;BME280;69053;57.338;18.700;2023-04-06T17:47:55;102560.34;;;2.16;71.13
79584;BME280;69053;57.338;18.700;2023-04-06T17:52:56;102565.34;;;2.10;71.93
79584;BME280;69053;57.338;18.700;2023-04-06T17:57:56;102570.56;;;2.00;72.11
79584;BME280;69053;57.338;18.700;2023-04-06T18:02:57;102568.91;;;1.86;73.08
79584;BME280;69053;57.338;18.700;2023-04-06T18:07:57;102576.44;;;1.81;73.11
79584;BME280;69053;57.338;18.700;2023-04-06T18:12:58;102577.50;;;1.78;73.18
79584;BME280;69053;57.338;18.700;2023-04-06T18:18:00;102580.19;;;1.78;73.63
79584;BME280;69053;57.338;18.700;2023-04-06T18:23:01;102579.44;;;1.76;74.39
79584;BME280;69053;57.338;18.700;2023-04-06T18:28:02;102581.91;;;1.79;73.52
79584;BME280;69053;57.338;18.700;2023-04-06T18:33:03;102580.94;;;1.80;73.61
79584;BME280;69053;57.338;18.700;2023-04-06T18:38:03;102581.41;;;1.74;73.99
79584;BME280;69053;57.338;18.700;2023-04-06T18:43:06;102580.03;;;1.68;74.72
79584;BME280;69053;57.338;18.700;2023-04-06T18:48:06;102579.50;;;1.63;75.17
79584;BME280;69053;57.338;18.700;2023-04-06T18:53:07;102575.19;;;1.61;75.21
79584;BME280;69053;57.338;18.700;2023-04-06T18:58:07;102582.72;;;1.56;76.69
79584;BME280;69053;57.338;18.700;2023-04-06T19:03:08;102575.53;;;1.56;75.96
79584;BME280;69053;57.338;18.700;2023-04-06T19:08:09;102576.16;;;1.60;76.04
79584;BME280;69053;57.338;18.700;2023-04-06T19:13:09;102571.66;;;1.60;76.19
79584;BME280;69053;57.338;18.700;2023-04-06T19:18:10;102580.16;;;1.54;77.45
79584;BME280;69053;57.338;18.700;2023-04-06T19:23:13;102579.31;;;1.54;76.77
79584;BME280;69053;57.338;18.700;2023-04-06T19:28:14;102573.94;;;1.54;76.89
79584;BME280;69053;57.338;18.700;2023-04-06T19:33:14;102577.16;;;1.59;76.99
79584;BME280;69053;57.338;18.700;2023-04-06T19:38:15;102574.66;;;1.56;77.13
79584;BME280;69053;57.338;18.700;2023-04-06T19:43:16;102569.41;;;1.54;77.52
79584;BME280;69053;57.338;18.700;2023-04-06T19:48:18;102565.75;;;1.55;77.08
79584;BME280;69053;57.338;18.700;2023-04-06T19:53:19;102560.72;;;1.50;78.43
79584;BME280;69053;57.338;18.700;2023-04-06T19:58:22;102569.72;;;1.49;77.98
79584;BME280;69053;57.338;18.700;2023-04-06T20:03:22;102568.78;;;1.50;77.49
79584;BME280;69053;57.338;18.700;2023-04-06T20:08:23;102571.47;;;1.50;78.10
79584;BME280;69053;57.338;18.700;2023-04-06T20:13:24;102558.16;;;1.49;77.98
79584;BME280;69053;57.338;18.700;2023-04-06T20:18:25;102554.59;;;1.48;78.55
79584;BME280;69053;57.338;18.700;2023-04-06T20:23:28;102563.41;;;1.50;77.93
79584;BME280;69053;57.338;18.700;2023-04-06T20:28:28;102549.25;;;1.48;78.74
79584;BME280;69053;57.338;18.700;2023-04-06T20:33:29;102558.16;;;1.49;78.57
79584;BME280;69053;57.338;18.700;2023-04-06T20:38:30;102559.00;;;1.49;78.65
79584;BME280;69053;57.338;18.700;2023-04-06T20:43:32;102555.34;;;1.50;78.49
79584;BME280;69053;57.338;18.700;2023-04-06T20:48:33;102562.66;;;1.48;78.95
79584;BME280;69053;57.338;18.700;2023-04-06T20:53:35;102561.69;;;1.49;78.80
79584;BME280;69053;57.338;18.700;2023-04-06T20:58:36;102566.94;;;1.51;78.81
79584;BME280;69053;57.338;18.700;2023-04-06T21:03:36;102576.63;;;1.54;78.59
79584;BME280;69053;57.338;18.700;2023-04-06T21:08:37;102574.88;;;1.53;78.55
79584;BME280;69053;57.338;18.700;2023-04-06T21:13:38;102568.78;;;1.50;79.03
79584;BME280;69053;57.338;18.700;2023-04-06T21:18:38;102561.94;;;1.46;78.99
79584;BME280;69053;57.338;18.700;2023-04-06T21:23:39;102557.41;;;1.47;79.41
79584;BME280;69053;57.338;18.700;2023-04-06T21:28:40;102557.19;;;1.50;79.30
79584;BME280;69053;57.338;18.700;2023-04-06T21:33:41;102554.38;;;1.52;79.97
79584;BME280;69053;57.338;18.700;2023-04-06T21:38:41;102558.16;;;1.49;80.11
79584;BME280;69053;57.338;18.700;2023-04-06T21:43:42;102552.66;;;1.50;79.74
79584;BME280;69053;57.338;18.700;2023-04-06T21:48:42;102538.38;;;1.50;80.07
79584;BME280;69053;57.338;18.700;2023-04-06T21:53:43;102537.50;;;1.49;80.54
79584;BME280;69053;57.338;18.700;2023-04-06T21:58:44;102530.31;;;1.50;80.21
79584;BME280;69053;57.338;18.700;2023-04-06T22:03:45;102538.38;;;1.50;80.90
79584;BME280;69053;57.338;18.700;2023-04-06T22:08:45;102543.75;;;1.50;81.64
79584;BME280;69053;57.338;18.700;2023-04-06T22:13:48;102534.97;;;1.48;82.48
79584;BME280;69053;57.338;18.700;2023-04-06T22:18:48;102538.72;;;1.45;82.55
79584;BME280;69053;57.338;18.700;2023-04-06T22:23:49;102538.72;;;1.45;83.54
79584;BME280;69053;57.338;18.700;2023-04-06T22:28:50;102527.13;;;1.45;83.39
79584;BME280;69053;57.338;18.700;2023-04-06T22:33:51;102517.22;;;1.45;84.05
79584;BME280;69053;57.338;18.700;2023-04-06T22:38:51;102517.34;;;1.44;83.68
79584;BME280;69053;57.338;18.700;2023-04-06T22:43:52;102517.22;;;1.45;84.10
79584;BME280;69053;57.338;18.700;2023-04-06T22:48:52;102526.25;;;1.44;84.05
79584;BME280;69053;57.338;18.700;2023-04-06T22:53:53;102525.28;;;1.45;85.04
79584;BME280;69053;57.338;18.700;2023-04-06T22:58:53;102516.38;;;1.45;85.05
79584;BME280;69053;57.338;18.700;2023-04-06T23:03:55;102509.16;;;1.45;85.01
79584;BME280;69053;57.338;18.700;2023-04-06T23:08:55;102516.59;;;1.42;85.52
79584;BME280;69053;57.338;18.700;2023-04-06T23:13:56;102516.47;;;1.43;86.03
79584;BME280;69053;57.338;18.700;2023-04-06T23:18:56;102504.75;;;1.44;85.70
79584;BME280;69053;57.338;18.700;2023-04-06T23:23:57;102508.94;;;1.48;85.56
79584;BME280;69053;57.338;18.700;2023-04-06T23:28:58;102511.75;;;1.47;86.29
79584;BME280;69053;57.338;18.700;2023-04-06T23:33:59;102514.53;;;1.45;86.10
79584;BME280;69053;57.338;18.700;2023-04-06T23:38:59;102510.78;;;1.48;86.28
79584;BME280;69053;57.338;18.700;2023-04-06T23:44:00;102509.69;;;1.50;86.01
79584;BME280;69053;57.338;18.700;2023-04-06T23:49:01;102505.28;;;1.49;87.22
79584;BME280;69053;57.338;18.700;2023-04-06T23:54:01;102497.47;;;1.46;87.22
79584;BME280;69053;57.338;18.700;2023-04-06T23:59:02;102504.00;;;1.42;88.04
